Time;durP1;ratioP1;P1;durP2;ratioP2;P2;SDS_P1;SDS_P2;PMS_P1;PMS_P2;Temp;Humidity;BMP_temperature;BMP_pressure;BME280_temperature;BME280_humidity;BME280_pressure;Samples;Min_cycle;Max_cycle;Signal;HPM_P1;HPM_P2
2023/10/16 00:00:40;;;;;;;3.30;2.90;;;10.30;54.60;;;;;;4902879;29;20580;-52
2023/10/16 00:03:06;;;;;;;3.87;2.70;;;10.20;55.00;;;;;;4912401;29;20474;-48
2023/10/16 00:05:38;;;;;;;4.63;3.27;;;10.20;55.20;;;;;;4909675;29;20442;-50
2023/10/16 00:08:07;;;;;;;4.10;3.23;;;10.20;55.30;;;;;;4913415;29;20209;-53
2023/10/16 00:10:35;;;;;;;3.83;3.10;;;10.20;55.30;;;;;;4917792;29;21249;-48
2023/10/16 00:13:10;;;;;;;3.90;2.73;;;10.20;55.40;;;;;;4913104;29;20520;-50
2023/10/16 00:15:49;;;;;;;3.10;2.90;;;10.20;55.00;;;;;;4903170;29;20519;-51
2023/10/16 00:18:18;;;;;;;5.73;3.60;;;10.30;54.90;;;;;;4908472;29;20472;-53
2023/10/16 00:20:44;;;;;;;3.80;3.50;;;10.20;54.80;;;;;;4900730;29;20521;-51
2023/10/16 00:23:11;;;;;;;3.40;3.10;;;10.20;54.90;;;;;;4905506;29;20468;-53
2023/10/16 00:25:38;;;;;;;4.10;3.07;;;10.20;55.00;;;;;;4906810;29;20453;-49
2023/10/16 00:28:05;;;;;;;4.77;3.63;;;10.20;54.80;;;;;;4900255;29;22136;-50
2023/10/16 00:30:31;;;;;;;9.40;3.70;;;10.30;54.60;;;;;;4900322;29;20461;-51
2023/10/16 00:32:58;;;;;;;5.93;3.07;;;10.30;54.50;;;;;;4901120;29;21007;-49
2023/10/16 00:35:24;;;;;;;6.50;3.50;;;10.30;54.50;;;;;;4903488;29;20233;-50
2023/10/16 00:37:50;;;;;;;4.27;3.50;;;10.20;54.40;;;;;;4902331;29;20452;-50
2023/10/16 00:40:29;;;;;;;4.10;2.83;;;10.30;54.30;;;;;;4907352;29;20452;-51
2023/10/16 00:42:55;;;;;;;5.20;3.70;;;10.30;54.20;;;;;;4899492;29;20441;-52
2023/10/16 00:45:21;;;;;;;4.03;3.53;;;10.20;54.00;;;;;;4905573;29;20976;-52
2023/10/16 00:47:47;;;;;;;4.33;3.20;;;10.30;54.00;;;;;;4905956;29;20198;-53
2023/10/16 00:50:14;;;;;;;4.17;3.17;;;10.20;53.90;;;;;;4904837;29;20707;-52
2023/10/16 00:52:42;;;;;;;4.13;3.20;;;10.10;54.30;;;;;;4903122;29;20437;-52
2023/10/16 00:55:11;;;;;;;3.27;2.97;;;9.90;55.90;;;;;;4908092;29;20489;-51
2023/10/16 00:57:39;;;;;;;3.77;2.90;;;9.60;56.60;;;;;;4908031;29;20516;-53
2023/10/16 01:00:12;;;;;;;3.47;3.10;;;9.60;57.00;;;;;;4899712;29;21178;-52
2023/10/16 01:02:40;;;;;;;3.77;2.80;;;9.70;56.80;;;;;;4901255;29;21101;-49
2023/10/16 01:05:07;;;;;;;3.80;2.90;;;9.70;56.60;;;;;;4909495;29;20940;-48
2023/10/16 01:07:33;;;;;;;3.10;2.90;;;9.80;56.50;;;;;;4904302;29;20471;-47
2023/10/16 01:09:59;;;;;;;4.60;2.93;;;9.80;56.20;;;;;;4897425;29;21002;-53
2023/10/16 01:12:25;;;;;;;3.70;3.40;;;9.80;56.00;;;;;;4909233;29;20205;-50
2023/10/16 01:14:51;;;;;;;4.13;2.90;;;9.90;55.90;;;;;;4906819;28;20491;-50
2023/10/16 01:17:29;;;;;;;3.97;3.63;;;9.80;55.70;;;;;;4905785;29;20845;-51
2023/10/16 01:19:56;;;;;;;6.33;2.70;;;9.80;55.80;;;;;;4904597;29;20233;-49
2023/10/16 01:22:22;;;;;;;3.60;2.93;;;9.80;55.60;;;;;;4903531;29;20984;-51
2023/10/16 01:24:48;;;;;;;3.30;2.90;;;9.70;55.80;;;;;;4904022;29;20453;-52
2023/10/16 01:27:25;;;;;;;4.63;2.70;;;9.40;56.40;;;;;;4905309;29;20830;-50
2023/10/16 01:29:52;;;;;;;3.20;2.70;;;9.40;56.70;;;;;;4901315;29;20348;-50
2023/10/16 01:32:18;;;;;;;2.60;2.40;;;9.40;56.70;;;;;;4906730;29;20467;-50
2023/10/16 01:34:46;;;;;;;4.37;2.73;;;9.30;56.80;;;;;;4905160;29;20480;-52
2023/10/16 01:37:17;;;;;;;2.30;2.10;;;9.00;57.30;;;;;;4895611;29;20284;-52
2023/10/16 01:39:49;;;;;;;2.50;2.23;;;8.70;58.40;;;;;;4902002;29;20987;-51
2023/10/16 01:42:16;;;;;;;2.97;2.63;;;8.60;58.90;;;;;;4896818;29;20441;-50
2023/10/16 01:44:44;;;;;;;2.63;2.40;;;8.60;59.00;;;;;;4898378;29;20870;-48
2023/10/16 01:47:15;;;;;;;2.93;2.30;;;8.60;59.30;;;;;;4909236;29;20461;-51
2023/10/16 01:49:47;;;;;;;2.30;2.10;;;8.80;58.90;;;;;;4902999;29;20480;-49
2023/10/16 01:52:13;;;;;;;3.00;2.60;;;9.00;58.30;;;;;;4910923;29;20459;-50
2023/10/16 01:54:40;;;;;;;3.30;2.93;;;9.10;57.80;;;;;;4908138;29;20481;-51
2023/10/16 01:57:10;;;;;;;4.10;2.87;;;9.20;57.40;;;;;;4906910;29;20212;-47
2023/10/16 01:59:42;;;;;;;3.97;2.33;;;9.30;57.00;;;;;;4908460;29;21152;-49
2023/10/16 02:02:09;;;;;;;7.00;2.47;;;9.30;56.60;;;;;;4905796;29;21064;-49
2023/10/16 02:04:36;;;;;;;3.07;2.77;;;9.20;56.40;;;;;;4909150;29;20481;-47
2023/10/16 02:07:02;;;;;;;4.37;2.90;;;9.20;56.60;;;;;;4906468;29;20445;-49
2023/10/16 02:09:31;;;;;;;2.80;2.60;;;9.20;56.70;;;;;;4905930;29;20467;-53
2023/10/16 02:11:59;;;;;;;2.87;2.33;;;9.10;56.80;;;;;;4912102;29;20255;-50
2023/10/16 02:14:26;;;;;;;2.50;2.30;;;8.90;57.60;;;;;;4896291;29;20521;-51
2023/10/16 02:16:52;;;;;;;2.97;2.77;;;8.70;58.30;;;;;;4907089;29;20465;-50
2023/10/16 02:19:17;;;;;;;4.67;2.53;;;8.70;58.50;;;;;;4903686;29;20514;-48
2023/10/16 02:21:44;;;;;;;2.50;2.20;;;8.40;58.60;;;;;;4914403;29;20980;-47
2023/10/16 02:24:11;;;;;;;2.53;2.33;;;8.00;59.40;;;;;;4915157;29;20545;-53
2023/10/16 02:26:55;;;;;;;3.30;2.50;;;7.80;60.60;;;;;;4909868;29;20461;-47
2023/10/16 02:29:24;;;;;;;3.63;2.33;;;7.90;61.00;;;;;;4915260;28;20833;-48
2023/10/16 02:31:52;;;;;;;4.53;2.30;;;8.10;59.90;;;;;;4903261;29;20453;-53
2023/10/16 02:34:22;;;;;;;3.47;3.27;;;7.90;59.80;;;;;;4908641;29;20491;-49
2023/10/16 02:36:50;;;;;;;5.53;2.57;;;7.90;60.90;;;;;;4907136;29;20444;-51
2023/10/16 02:39:35;;;;;;;2.30;2.10;;;7.90;60.90;;;;;;4903422;29;20476;-50
2023/10/16 02:42:07;;;;;;;2.80;2.37;;;8.00;60.20;;;;;;4899879;29;20446;-53
2023/10/16 02:44:38;;;;;;;2.93;2.37;;;8.20;59.80;;;;;;4902864;29;20452;-47
2023/10/16 02:47:13;;;;;;;3.47;2.70;;;8.30;59.40;;;;;;4908112;29;20445;-47
2023/10/16 02:49:47;;;;;;;4.40;2.23;;;8.50;59.00;;;;;;4911331;29;20509;-51
2023/10/16 02:52:14;;;;;;;3.00;2.70;;;8.50;58.80;;;;;;4904461;29;20467;-49
2023/10/16 02:54:40;;;;;;;3.63;2.57;;;8.60;58.60;;;;;;4908570;29;22198;-51
2023/10/16 02:57:06;;;;;;;3.40;2.10;;;8.70;58.30;;;;;;4903314;29;20532;-52
2023/10/16 02:59:33;;;;;;;2.77;2.40;;;8.80;57.90;;;;;;4906282;29;20695;-55
2023/10/16 03:02:04;;;;;;;3.10;2.63;;;8.80;57.60;;;;;;4903049;29;20500;-49
2023/10/16 03:04:30;;;;;;;2.90;2.60;;;8.70;57.70;;;;;;4912955;29;20503;-53
2023/10/16 03:06:55;;;;;;;3.00;2.60;;;8.60;57.80;;;;;;4905527;29;20442;-51
2023/10/16 03:09:28;;;;;;;2.70;2.37;;;8.40;58.30;;;;;;4906128;29;20288;-49
2023/10/16 03:12:04;;;;;;;2.60;2.40;;;8.50;58.60;;;;;;4913543;29;20193;-50
2023/10/16 03:14:45;;;;;;;3.20;2.80;;;8.50;58.30;;;;;;4911503;29;20484;-51
2023/10/16 03:17:18;;;;;;;2.87;2.67;;;8.50;58.00;;;;;;4909698;29;20501;-49
2023/10/16 03:19:48;;;;;;;3.43;2.80;;;8.30;58.40;;;;;;4907339;29;20481;-47
2023/10/16 03:22:14;;;;;;;3.50;2.50;;;8.20;58.90;;;;;;4909563;29;20464;-47
2023/10/16 03:24:39;;;;;;;3.70;2.70;;;8.30;58.90;;;;;;4915530;29;21145;-53
2023/10/16 03:27:08;;;;;;;2.53;2.13;;;8.30;58.80;;;;;;4907848;29;20488;-50
2023/10/16 03:29:35;;;;;;;3.00;2.70;;;8.40;58.50;;;;;;4905971;29;20217;-52
2023/10/16 03:32:01;;;;;;;4.10;2.70;;;8.50;58.20;;;;;;4901873;29;20567;-51
2023/10/16 03:34:26;;;;;;;2.80;2.20;;;8.20;58.40;;;;;;4913073;29;20474;-50
2023/10/16 03:36:59;;;;;;;3.20;2.17;;;8.20;59.00;;;;;;4911877;29;20453;-48
2023/10/16 03:39:25;;;;;;;2.70;2.50;;;8.20;58.90;;;;;;4909221;29;20305;-49
2023/10/16 03:41:51;;;;;;;4.83;2.90;;;8.20;58.60;;;;;;4902911;29;21037;-53
2023/10/16 03:44:18;;;;;;;3.47;3.17;;;8.20;58.60;;;;;;4901610;29;20499;-47
2023/10/16 03:46:47;;;;;;;3.80;3.00;;;7.90;58.50;;;;;;4906928;29;20182;-50
2023/10/16 03:49:14;;;;;;;3.10;2.73;;;7.80;59.60;;;;;;4901510;29;20465;-52
2023/10/16 03:51:40;;;;;;;5.03;3.27;;;8.00;59.40;;;;;;4908680;29;20453;-51
2023/10/16 03:54:06;;;;;;;2.83;2.53;;;8.10;58.70;;;;;;4909648;29;20944;-52
2023/10/16 03:56:31;;;;;;;2.70;2.50;;;8.10;58.60;;;;;;4909864;29;20276;-52
2023/10/16 03:58:57;;;;;;;3.57;2.70;;;8.20;58.30;;;;;;4909755;29;20217;-50
2023/10/16 04:01:27;;;;;;;4.30;3.00;;;8.30;58.00;;;;;;4917040;29;20240;-51
2023/10/16 04:04:03;;;;;;;2.70;2.50;;;8.40;57.60;;;;;;4904307;29;21123;-52
2023/10/16 04:06:30;;;;;;;3.60;3.30;;;8.40;57.60;;;;;;4913465;29;20975;-49
2023/10/16 04:08:58;;;;;;;4.73;2.43;;;8.30;57.80;;;;;;4913711;29;20476;-54
2023/10/16 04:11:24;;;;;;;2.70;2.50;;;8.30;57.90;;;;;;4905900;29;20485;-54
2023/10/16 04:13:52;;;;;;;3.30;2.80;;;8.30;57.60;;;;;;4906879;29;20461;-54
2023/10/16 04:19:35;;;;;;;3.17;2.87;;;8.30;57.90;;;;;;4914282;29;20475;-53
2023/10/16 04:21:57;;;;;;;3.27;2.93;;;8.30;57.70;;;;;;4911304;29;20534;-51
2023/10/16 04:34:56;;;;;;;2.90;2.60;;;8.30;57.50;;;;;;4907483;29;20476;-50
2023/10/16 04:47:55;;;;;;;3.80;3.20;;;7.80;58.30;;;;;;4904792;29;20448;-51
2023/10/16 05:01:32;;;;;;;4.37;2.50;;;8.10;57.40;;;;;;4903387;29;20532;-50
2023/10/16 05:06:27;;;;;;;4.83;3.40;;;7.80;57.50;;;;;;4907441;29;20453;-50
2023/10/16 05:14:20;;;;;;;3.23;2.43;;;7.30;58.60;;;;;;4911253;29;20827;-48
2023/10/16 06:14:12;;;;;;;3.93;3.53;;;8.60;55.60;;;;;;4912149;29;20428;-49
2023/10/16 06:16:39;;;;;;;5.47;4.03;;;8.70;55.60;;;;;;4911446;29;20972;-53
2023/10/16 06:19:14;;;;;;;5.80;4.70;;;8.70;55.60;;;;;;4912209;29;20440;-52
2023/10/16 06:21:45;;;;;;;4.40;3.70;;;8.70;55.60;;;;;;4909480;29;20452;-50
2023/10/16 06:24:25;;;;;;;4.43;4.03;;;8.80;55.70;;;;;;4909055;29;20580;-48
2023/10/16 06:26:59;;;;;;;9.23;4.30;;;8.80;55.80;;;;;;4914488;29;20495;-51
2023/10/16 06:29:34;;;;;;;5.60;3.97;;;8.90;55.90;;;;;;4905468;29;20484;-51
2023/10/16 06:32:07;;;;;;;4.53;4.13;;;9.00;55.80;;;;;;4913045;29;20461;-49
2023/10/16 06:34:33;;;;;;;5.30;4.20;;;9.20;56.00;;;;;;4908443;29;20510;-48
2023/10/16 06:37:05;;;;;;;3.97;3.67;;;9.30;55.80;;;;;;4912861;29;20484;-49
2023/10/16 06:39:35;;;;;;;6.63;4.20;;;9.50;55.60;;;;;;4901234;29;20552;-49
2023/10/16 06:42:05;;;;;;;4.70;4.30;;;9.70;55.30;;;;;;4912557;29;20504;-51
2023/10/16 06:44:34;;;;;;;5.47;4.40;;;9.90;55.00;;;;;;4919045;29;20444;-49
2023/10/16 06:46:59;;;;;;;4.20;3.80;;;9.90;54.30;;;;;;4914457;29;20486;-50
2023/10/16 06:49:38;;;;;;;11.10;4.17;;;10.00;52.90;;;;;;4914703;29;20945;-54
2023/10/16 06:52:12;;;;;;;4.20;3.80;;;10.10;52.80;;;;;;4909491;29;20185;-48
2023/10/16 06:54:39;;;;;;;4.73;4.20;;;10.10;52.80;;;;;;4911749;29;20568;-52
2023/10/16 06:57:11;;;;;;;4.97;4.00;;;10.00;52.80;;;;;;4905978;29;20520;-52
2023/10/16 06:59:38;;;;;;;4.50;4.00;;;10.00;52.90;;;;;;4911084;29;20531;-50
2023/10/16 07:02:04;;;;;;;5.43;4.93;;;10.00;53.10;;;;;;4910826;29;20495;-47
2023/10/16 07:04:29;;;;;;;4.00;3.70;;;10.00;53.10;;;;;;4912446;29;20938;-52
2023/10/16 07:06:57;;;;;;;5.60;3.70;;;10.00;53.30;;;;;;4909095;29;20808;-49
2023/10/16 07:09:36;;;;;;;4.90;4.33;;;10.10;53.60;;;;;;4911410;29;20981;-52
2023/10/16 07:12:03;;;;;;;4.07;3.67;;;10.10;53.70;;;;;;4915005;29;20821;-49
2023/10/16 07:14:29;;;;;;;3.73;3.40;;;10.10;53.80;;;;;;4915431;29;20452;-52
2023/10/16 07:16:56;;;;;;;7.27;3.70;;;10.30;53.90;;;;;;4913797;29;20999;-48
2023/10/16 07:19:21;;;;;;;4.00;3.57;;;10.50;53.60;;;;;;4915001;29;20474;-54
2023/10/16 07:21:48;;;;;;;4.97;4.57;;;10.70;53.60;;;;;;4912068;29;20441;-50
2023/10/16 07:24:15;;;;;;;4.30;3.67;;;10.90;53.30;;;;;;4914662;29;20198;-53
2023/10/16 07:26:42;;;;;;;4.63;3.87;;;11.20;52.80;;;;;;4914461;29;20426;-51
2023/10/16 07:29:07;;;;;;;4.43;4.13;;;11.30;52.70;;;;;;4915085;29;20529;-54
2023/10/16 07:31:33;;;;;;;4.37;3.93;;;11.40;52.40;;;;;;4918586;29;20457;-48
2023/10/16 07:34:04;;;;;;;9.20;5.37;;;11.40;52.00;;;;;;4914721;29;20661;-51
2023/10/16 07:36:30;;;;;;;5.33;3.90;;;11.40;51.80;;;;;;4914685;29;20516;-55
2023/10/16 07:38:56;;;;;;;4.03;3.50;;;11.40;52.30;;;;;;4915098;29;21154;-52
2023/10/16 07:41:23;;;;;;;5.17;3.43;;;11.50;52.40;;;;;;4914571;29;20524;-56
2023/10/16 07:43:54;;;;;;;6.87;4.07;;;11.60;52.10;;;;;;4914480;29;20817;-52
2023/10/16 07:46:28;;;;;;;9.50;4.87;;;11.70;52.40;;;;;;4917274;29;20865;-51
2023/10/16 07:48:53;;;;;;;11.90;4.30;;;11.60;52.40;;;;;;4914909;29;20919;-53
2023/10/16 07:51:21;;;;;;;23.07;6.57;;;11.70;52.80;;;;;;4914591;29;20456;-51
2023/10/16 07:53:50;;;;;;;4.43;4.00;;;11.80;52.90;;;;;;4914610;29;20212;-51
2023/10/16 07:59:06;;;;;;;4.00;3.60;;;11.60;53.50;;;;;;4914075;29;20821;-47
2023/10/16 08:01:42;;;;;;;4.37;4.03;;;11.70;53.90;;;;;;4909835;29;20489;-48
2023/10/16 08:06:52;;;;;;;5.67;4.43;;;11.70;53.80;;;;;;4914345;29;20797;-50
2023/10/16 08:11:57;;;;;;;10.83;4.53;;;11.90;53.80;;;;;;4916701;29;20436;-49
2023/10/16 08:14:27;;;;;;;4.10;3.80;;;11.90;53.90;;;;;;4908462;29;20896;-49
2023/10/16 08:17:04;;;;;;;4.50;4.10;;;11.90;54.30;;;;;;4913833;29;20521;-48
2023/10/16 08:19:34;;;;;;;5.00;3.87;;;12.00;54.30;;;;;;4907371;29;20465;-47
2023/10/16 08:22:03;;;;;;;5.23;4.33;;;12.30;54.00;;;;;;4914025;29;20441;-49
2023/10/16 08:24:29;;;;;;;5.30;4.03;;;12.20;53.20;;;;;;4913320;29;20468;-49
2023/10/16 08:27:08;;;;;;;4.20;3.80;;;12.00;54.70;;;;;;4913536;29;20430;-50
2023/10/16 08:29:54;;;;;;;6.57;4.77;;;12.10;54.20;;;;;;4913881;29;20968;-48
2023/10/16 08:35:09;;;;;;;4.53;4.10;;;12.70;54.60;;;;;;4914472;29;20535;-49
2023/10/16 08:37:35;;;;;;;3.90;3.50;;;12.90;53.40;;;;;;4913692;29;20517;-49
2023/10/16 08:40:00;;;;;;;5.93;4.30;;;13.10;53.20;;;;;;4913663;29;20540;-50
2023/10/16 08:42:26;;;;;;;5.27;4.77;;;13.20;52.70;;;;;;4913616;29;20417;-50
2023/10/16 08:44:52;;;;;;;4.93;4.30;;;13.30;52.80;;;;;;4913908;29;20221;-49
2023/10/16 08:47:25;;;;;;;4.67;4.27;;;13.50;52.20;;;;;;4913366;29;20201;-48
2023/10/16 08:49:55;;;;;;;4.13;3.83;;;13.70;51.50;;;;;;4913050;29;20581;-49
2023/10/16 08:52:23;;;;;;;4.97;4.50;;;13.80;51.90;;;;;;4912294;29;20440;-52
2023/10/16 08:57:27;;;;;;;6.37;4.67;;;14.00;51.30;;;;;;4913189;29;20433;-49
2023/10/16 08:59:57;;;;;;;5.13;4.70;;;14.10;51.50;;;;;;4913339;29;20638;-49
2023/10/16 09:02:25;;;;;;;4.07;3.70;;;14.20;51.10;;;;;;4913131;29;21012;-49
2023/10/16 09:04:55;;;;;;;5.23;4.43;;;14.30;51.50;;;;;;4914214;29;20437;-49
2023/10/16 09:07:23;;;;;;;5.60;4.40;;;14.40;51.40;;;;;;4912852;29;20856;-49
2023/10/16 09:09:49;;;;;;;4.43;3.87;;;14.60;51.00;;;;;;4913157;29;20471;-50
2023/10/16 09:12:24;;;;;;;3.63;3.33;;;14.80;50.60;;;;;;4912974;29;20437;-48
2023/10/16 09:14:52;;;;;;;4.50;4.10;;;15.00;50.80;;;;;;4913372;29;20355;-49
2023/10/16 09:17:21;;;;;;;5.13;4.50;;;15.10;49.20;;;;;;4911533;29;20544;-49
2023/10/16 09:19:48;;;;;;;7.27;4.10;;;15.00;49.50;;;;;;4912824;29;20480;-48
2023/10/16 09:22:15;;;;;;;4.60;4.30;;;15.20;49.80;;;;;;4914879;29;20460;-48
2023/10/16 09:24:44;;;;;;;5.27;3.93;;;15.30;49.30;;;;;;4913264;29;20437;-49
2023/10/16 09:27:53;;;;;;;4.33;4.00;;;15.50;49.20;;;;;;4913473;29;20516;-49
2023/10/16 09:30:01;;;;;;;18.30;4.87;;;15.70;48.70;;;;;;4908870;29;20498;-49
2023/10/16 09:32:36;;;;;;;4.77;4.30;;;15.70;47.50;;;;;;4912677;29;20425;-48
2023/10/16 09:35:06;;;;;;;5.37;3.90;;;15.70;47.70;;;;;;4912668;29;20519;-49
2023/10/16 09:37:36;;;;;;;7.60;4.60;;;15.90;47.50;;;;;;4916045;29;20512;-50
2023/10/16 09:40:37;;;;;;;5.60;4.93;;;16.10;47.90;;;;;;4912684;29;20453;-50
2023/10/16 09:43:06;;;;;;;6.80;3.50;;;16.20;47.60;;;;;;4912634;29;20849;-50
2023/10/16 09:45:33;;;;;;;4.37;3.97;;;16.50;47.40;;;;;;4912839;29;20450;-48
2023/10/16 09:48:07;;;;;;;4.30;3.60;;;16.70;46.40;;;;;;4913649;29;20496;-49
2023/10/16 09:50:34;;;;;;;3.90;3.53;;;16.90;46.30;;;;;;4911848;29;20432;-49
2023/10/16 09:53:01;;;;;;;5.40;4.00;;;17.00;45.20;;;;;;4912559;29;20869;-50
2023/10/16 09:55:30;;;;;;;4.60;3.47;;;17.00;45.40;;;;;;4915004;29;20519;-50
2023/10/16 09:57:59;;;;;;;4.57;4.27;;;17.00;46.20;;;;;;4912617;29;20421;-50
2023/10/16 10:03:05;;;;;;;5.10;3.93;;;17.30;45.80;;;;;;4912604;29;20496;-49
2023/10/16 10:05:40;;;;;;;4.93;4.20;;;17.50;45.60;;;;;;4912209;29;20838;-50
2023/10/16 10:08:15;;;;;;;4.60;4.20;;;17.60;45.00;;;;;;4912663;29;21040;-50
2023/10/16 10:13:35;;;;;;;3.43;2.00;;;17.10;43.50;;;;;;4910164;29;20506;-52
2023/10/16 10:16:10;;;;;;;2.03;1.70;;;16.90;42.20;;;;;;4912056;29;20492;-49
2023/10/16 10:18:45;;;;;;;1.70;1.60;;;16.90;42.60;;;;;;4912387;29;20476;-49
2023/10/16 10:21:18;;;;;;;4.23;1.87;;;17.40;43.00;;;;;;4910515;29;20504;-51
2023/10/16 10:23:46;;;;;;;2.80;2.00;;;17.70;41.50;;;;;;4912074;29;20477;-50
2023/10/16 10:26:18;;;;;;;2.20;2.00;;;18.00;41.00;;;;;;4912300;29;20461;-48
2023/10/16 10:28:45;;;;;;;2.13;1.80;;;18.10;40.20;;;;;;4911420;29;20472;-52
2023/10/16 10:31:15;;;;;;;1.70;1.60;;;18.20;39.70;;;;;;4912466;29;20461;-50
2023/10/16 10:33:42;;;;;;;2.60;1.63;;;18.40;40.40;;;;;;4912989;29;20497;-55
2023/10/16 10:36:45;;;;;;;3.10;1.60;;;18.30;40.20;;;;;;4912126;29;20484;-50
2023/10/16 10:39:20;;;;;;;4.73;2.00;;;18.50;39.10;;;;;;4912263;29;20449;-50
2023/10/16 10:41:51;;;;;;;1.67;1.57;;;18.90;38.60;;;;;;4914883;29;20432;-49
2023/10/16 10:44:19;;;;;;;2.30;1.77;;;19.10;38.00;;;;;;4915033;29;20600;-51
2023/10/16 10:46:49;;;;;;;4.10;1.97;;;19.20;37.20;;;;;;4912745;29;20465;-52
2023/10/16 10:49:18;;;;;;;2.80;1.57;;;19.50;37.80;;;;;;4913958;29;20469;-50
2023/10/16 10:51:44;;;;;;;4.97;1.57;;;19.50;37.20;;;;;;4909780;29;20452;-48
2023/10/16 10:54:13;;;;;;;3.30;1.40;;;19.60;37.70;;;;;;4913812;29;20596;-49
2023/10/16 10:56:47;;;;;;;2.03;1.83;;;19.50;37.80;;;;;;4915062;29;20522;-51
2023/10/16 10:59:32;;;;;;;1.77;1.50;;;19.70;36.80;;;;;;4913362;29;20542;-48
2023/10/16 11:02:09;;;;;;;2.50;1.70;;;19.80;36.40;;;;;;4912475;29;20468;-50
2023/10/16 11:04:35;;;;;;;2.60;1.50;;;19.90;35.70;;;;;;4913087;29;20827;-55
2023/10/16 11:07:11;;;;;;;1.70;1.60;;;20.00;36.40;;;;;;4911259;29;20444;-50
2023/10/16 11:09:38;;;;;;;2.30;1.20;;;19.50;35.20;;;;;;4914790;29;20574;-55
2023/10/16 11:12:07;;;;;;;1.50;1.30;;;19.50;36.30;;;;;;4915155;29;20464;-50
2023/10/16 11:14:38;;;;;;;2.30;1.70;;;19.60;36.60;;;;;;4910866;29;20453;-51
2023/10/16 11:17:07;;;;;;;3.40;1.53;;;19.90;36.10;;;;;;4914297;29;20524;-49
2023/10/16 11:19:53;;;;;;;1.50;1.40;;;20.10;35.30;;;;;;4915286;29;20547;-49
2023/10/16 11:22:27;;;;;;;1.73;1.30;;;19.70;35.80;;;;;;4913030;29;20449;-50
2023/10/16 11:24:53;;;;;;;2.10;1.33;;;19.90;35.80;;;;;;4914780;29;20441;-49
2023/10/16 11:27:19;;;;;;;2.20;1.80;;;19.40;35.90;;;;;;4913910;29;20484;-50
2023/10/16 11:29:46;;;;;;;2.37;1.60;;;19.40;36.00;;;;;;4913436;29;20510;-50
2023/10/16 11:32:15;;;;;;;1.53;1.43;;;19.80;35.10;;;;;;4912913;29;20843;-53
2023/10/16 11:34:58;;;;;;;2.07;1.83;;;19.70;34.30;;;;;;4915018;29;21159;-51
2023/10/16 11:37:25;;;;;;;6.73;1.60;;;19.20;34.40;;;;;;4912067;29;20855;-53
2023/10/16 11:39:56;;;;;;;3.10;1.60;;;18.20;35.70;;;;;;4914740;29;20445;-50
2023/10/16 11:42:24;;;;;;;1.37;1.27;;;18.00;36.30;;;;;;4912931;29;20465;-51
2023/10/16 11:44:51;;;;;;;2.63;1.40;;;18.00;37.10;;;;;;4914578;29;20457;-50
2023/10/16 11:47:18;;;;;;;2.40;1.70;;;18.10;36.60;;;;;;4914422;29;20434;-48
2023/10/16 11:49:53;;;;;;;1.90;1.70;;;18.10;36.50;;;;;;4914285;29;20910;-49
2023/10/16 11:52:19;;;;;;;1.67;1.57;;;18.30;36.80;;;;;;4913174;29;20499;-52
2023/10/16 11:54:46;;;;;;;1.40;1.27;;;18.00;37.20;;;;;;4915164;29;20477;-51
2023/10/16 11:57:13;;;;;;;3.43;2.10;;;17.80;36.80;;;;;;4909976;29;20457;-52
2023/10/16 11:59:38;;;;;;;2.03;1.47;;;17.90;36.70;;;;;;4912412;29;20531;-47
2023/10/16 12:02:17;;;;;;;3.13;1.70;;;17.70;36.70;;;;;;4913245;29;20953;-50
2023/10/16 12:04:42;;;;;;;2.43;1.50;;;17.80;38.20;;;;;;4916206;29;20197;-51
2023/10/16 12:07:08;;;;;;;3.60;1.93;;;18.40;37.50;;;;;;4920625;29;20532;-50
2023/10/16 12:09:38;;;;;;;5.00;1.90;;;17.70;36.80;;;;;;4913643;29;20217;-48
2023/10/16 12:12:07;;;;;;;2.93;1.70;;;17.60;37.20;;;;;;4911659;29;21315;-48
2023/10/16 12:14:37;;;;;;;2.50;1.90;;;17.30;36.50;;;;;;4909900;29;20453;-47
2023/10/16 12:17:06;;;;;;;2.23;1.83;;;17.30;37.90;;;;;;4907954;29;21004;-48
2023/10/16 12:19:33;;;;;;;1.97;1.87;;;17.90;38.30;;;;;;4914729;29;20844;-52
2023/10/16 12:22:00;;;;;;;4.07;1.90;;;17.80;36.30;;;;;;4913802;29;20460;-48
2023/10/16 12:24:26;;;;;;;4.30;1.83;;;18.10;37.40;;;;;;4912684;29;20449;-50
2023/10/16 12:26:52;;;;;;;2.60;1.70;;;18.40;36.70;;;;;;4915634;29;20437;-50
2023/10/16 12:29:18;;;;;;;1.90;1.70;;;18.70;36.20;;;;;;4912384;29;20628;-48
2023/10/16 12:31:43;;;;;;;3.50;2.33;;;18.40;37.10;;;;;;4912364;29;20570;-48
2023/10/16 12:34:11;;;;;;;3.50;1.97;;;18.90;37.50;;;;;;4914745;29;20453;-53
2023/10/16 12:36:43;;;;;;;4.83;1.90;;;18.80;36.50;;;;;;4915761;29;20237;-50
2023/10/16 12:39:25;;;;;;;4.23;2.00;;;19.00;36.50;;;;;;4915498;29;20532;-49
2023/10/16 12:41:55;;;;;;;3.17;2.10;;;19.10;35.70;;;;;;4921046;29;20452;-51
2023/10/16 12:44:23;;;;;;;4.50;2.40;;;19.20;36.30;;;;;;4914261;29;20461;-51
2023/10/16 12:46:50;;;;;;;1.80;1.57;;;19.40;36.20;;;;;;4908792;29;21292;-48
2023/10/16 12:49:15;;;;;;;1.90;1.67;;;19.60;34.90;;;;;;4908333;29;20469;-53
2023/10/16 12:51:42;;;;;;;3.80;2.40;;;19.70;33.90;;;;;;4915633;29;20512;-53
2023/10/16 12:54:10;;;;;;;4.30;1.60;;;20.10;34.50;;;;;;4912753;29;20205;-50
2023/10/16 12:56:36;;;;;;;2.57;1.30;;;19.80;34.50;;;;;;4913134;29;20469;-50
2023/10/16 12:59:03;;;;;;;1.80;1.67;;;20.00;33.80;;;;;;4913442;29;20464;-52
2023/10/16 13:01:28;;;;;;;3.20;1.73;;;20.20;33.60;;;;;;4912498;29;20828;-55
2023/10/16 13:04:00;;;;;;;4.53;2.17;;;19.90;33.30;;;;;;4912104;29;20457;-53
2023/10/16 13:06:28;;;;;;;1.67;1.57;;;19.60;34.30;;;;;;4916795;29;20185;-49
2023/10/16 13:08:55;;;;;;;2.37;2.17;;;19.60;35.40;;;;;;4910362;29;20482;-52
2023/10/16 13:11:20;;;;;;;1.83;1.53;;;20.10;35.00;;;;;;4912261;29;20441;-52
2023/10/16 13:13:46;;;;;;;6.40;1.60;;;20.60;34.30;;;;;;4911166;29;20484;-51
2023/10/16 13:16:12;;;;;;;1.63;1.53;;;21.10;34.00;;;;;;4910478;29;20616;-50
2023/10/16 13:18:37;;;;;;;3.07;1.70;;;21.50;33.00;;;;;;4913147;29;20910;-49
2023/10/16 13:21:15;;;;;;;2.03;1.43;;;21.50;32.70;;;;;;4913055;29;20193;-49
2023/10/16 13:23:40;;;;;;;2.17;1.97;;;21.60;32.80;;;;;;4916911;29;20193;-50
2023/10/16 13:26:07;;;;;;;2.80;1.83;;;21.90;33.40;;;;;;4915787;29;20437;-51
2023/10/16 13:28:38;;;;;;;1.97;1.77;;;21.60;32.60;;;;;;4912836;29;20216;-50
2023/10/16 13:31:04;;;;;;;2.67;2.00;;;21.40;31.60;;;;;;4912681;29;20413;-52
2023/10/16 13:33:32;;;;;;;2.67;1.33;;;21.20;31.50;;;;;;4911064;29;20463;-53
2023/10/16 13:36:00;;;;;;;1.40;1.30;;;21.20;31.50;;;;;;4912556;29;20219;-50
2023/10/16 13:38:26;;;;;;;1.40;1.30;;;21.30;32.10;;;;;;4912937;29;20453;-53
2023/10/16 13:40:53;;;;;;;2.10;1.47;;;21.50;31.70;;;;;;4912147;29;20434;-52
2023/10/16 13:43:19;;;;;;;1.67;1.57;;;21.40;31.60;;;;;;4904509;29;20452;-53
2023/10/16 13:45:44;;;;;;;2.60;1.93;;;21.50;31.30;;;;;;4915371;29;20516;-48
2023/10/16 13:48:10;;;;;;;1.57;1.47;;;21.70;30.80;;;;;;4910393;29;20212;-48
2023/10/16 13:50:36;;;;;;;1.53;1.43;;;21.70;30.20;;;;;;4912803;29;20185;-52
2023/10/16 13:53:04;;;;;;;2.30;1.37;;;21.80;30.00;;;;;;4909571;29;20200;-51
2023/10/16 13:55:30;;;;;;;1.20;1.13;;;21.50;30.30;;;;;;4904290;29;20221;-48
2023/10/16 13:57:56;;;;;;;1.70;1.60;;;21.30;29.90;;;;;;4899579;29;20464;-50
2023/10/16 14:00:29;;;;;;;1.90;1.37;;;21.20;30.00;;;;;;4903844;29;20185;-52
2023/10/16 14:03:16;;;;;;;1.50;1.40;;;21.00;30.00;;;;;;4901921;29;20564;-53
2023/10/16 14:05:46;;;;;;;1.43;1.33;;;21.00;30.10;;;;;;4906795;29;20450;-52
2023/10/16 14:08:17;;;;;;;2.43;1.30;;;20.90;30.60;;;;;;4907801;29;20469;-53
2023/10/16 14:10:52;;;;;;;1.50;1.40;;;21.10;30.40;;;;;;4904090;29;20992;-54
2023/10/16 14:13:21;;;;;;;1.50;1.40;;;21.50;30.70;;;;;;4904482;29;20454;-53
2023/10/16 14:15:50;;;;;;;2.10;1.77;;;21.60;31.20;;;;;;4908477;29;20564;-51
2023/10/16 14:18:20;;;;;;;1.60;1.50;;;21.70;30.20;;;;;;4911124;29;20477;-52
2023/10/16 14:20:49;;;;;;;1.50;1.40;;;21.80;31.00;;;;;;4909818;29;20449;-53
2023/10/16 14:23:17;;;;;;;2.17;1.00;;;22.00;30.10;;;;;;4912070;29;20448;-55
2023/10/16 14:25:48;;;;;;;4.57;1.57;;;21.90;30.00;;;;;;4905223;29;20458;-52
2023/10/16 14:28:25;;;;;;;1.97;1.50;;;21.70;30.50;;;;;;4909368;29;20472;-51
2023/10/16 14:30:54;;;;;;;1.40;1.30;;;21.90;30.50;;;;;;4908929;29;20452;-51
2023/10/16 14:33:23;;;;;;;1.70;1.50;;;22.20;30.10;;;;;;4908721;29;22373;-52
2023/10/16 14:35:49;;;;;;;1.40;1.30;;;22.30;30.20;;;;;;4913796;29;20482;-52
2023/10/16 14:38:19;;;;;;;2.43;2.00;;;22.10;29.90;;;;;;4911022;29;20479;-52
2023/10/16 14:40:45;;;;;;;1.43;1.27;;;22.30;30.30;;;;;;4905912;29;20438;-49
2023/10/16 14:43:11;;;;;;;2.50;1.20;;;22.40;30.40;;;;;;4915588;29;20549;-52
2023/10/16 14:45:37;;;;;;;2.43;1.60;;;22.40;29.50;;;;;;4910382;29;20564;-51
2023/10/16 14:48:09;;;;;;;1.60;1.50;;;22.50;29.70;;;;;;4913061;29;20216;-53
2023/10/16 14:50:38;;;;;;;1.43;1.10;;;22.30;29.80;;;;;;4912132;29;20510;-53
2023/10/16 14:53:06;;;;;;;2.63;1.50;;;22.20;30.20;;;;;;4907164;29;20445;-54
2023/10/16 14:55:32;;;;;;;1.87;1.77;;;22.10;30.10;;;;;;4913090;29;20503;-52
2023/10/16 14:57:58;;;;;;;2.00;1.77;;;21.70;30.40;;;;;;4914342;29;20437;-54
2023/10/16 15:00:37;;;;;;;2.40;1.53;;;21.40;30.80;;;;;;4912043;29;20453;-55